Milroy, Minnesota
Current Conditions -  °F | °C
As of 12:33 PM on Monday 22 Dec 2014 (Local Time) from KTKC Reporting Station
Light Rain Light Rain  
Wind Chill: 32°   Ceiling: 800
Heat Index: 39°   Visibility: 2.5mi
Dew Point: 38°   Wind: 13mph
Humidity: 95%   Direction: 160°SSE
Pressure: 29.45"   Gusts: 20mph
Location:  44.42°N, 95.55°W
Report Text: KTKC 221833Z AUTO 16011G17KT 2 1/2SM -RA OVC008 04/03 A2945 RMK AO2 T00400033
Loading
Personal Weather Stations






























Interactive Weather Map New forecast layout! Learn more

10-Day Weather Forecast

Advertisements
Track Severe Weather on mobile